sensor_id;sensor_type;location;lat;lon;timestamp;pressure;altitude;pressure_sealevel;temperature;humidity
53041;BME280;39326;42.650;23.248;2023-03-03T00:00:43;92533.72;;;2.59;87.24
53041;BME280;39326;42.650;23.248;2023-03-03T00:03:13;92536.03;;;2.61;87.42
53041;BME280;39326;42.650;23.248;2023-03-03T00:05:40;92536.69;;;2.58;86.78
53041;BME280;39326;42.650;23.248;2023-03-03T00:08:07;92532.97;;;2.46;86.95
53041;BME280;39326;42.650;23.248;2023-03-03T00:10:34;92528.91;;;2.61;87.46
53041;BME280;39326;42.650;23.248;2023-03-03T00:13:00;92528.91;;;2.61;87.26
53041;BME280;39326;42.650;23.248;2023-03-03T00:15:27;92525.91;;;2.63;86.56
53041;BME280;39326;42.650;23.248;2023-03-03T00:17:57;92526.50;;;2.56;87.58
53041;BME280;39326;42.650;23.248;2023-03-03T00:20:36;92521.44;;;2.51;87.94
53041;BME280;39326;42.650;23.248;2023-03-03T00:23:15;92524.63;;;2.57;86.94
53041;BME280;39326;42.650;23.248;2023-03-03T00:25:44;92521.44;;;2.51;87.56
53041;BME280;39326;42.650;23.248;2023-03-03T00:28:26;92517.44;;;2.41;87.05
53041;BME280;39326;42.650;23.248;2023-03-03T00:30:54;92520.28;;;2.36;88.33
53041;BME280;39326;42.650;23.248;2023-03-03T00:33:33;92522.22;;;2.39;87.24
53041;BME280;39326;42.650;23.248;2023-03-03T00:38:42;92511.53;;;2.20;88.77
53041;BME280;39326;42.650;23.248;2023-03-03T00:41:25;92504.50;;;2.24;88.53
53041;BME280;39326;42.650;23.248;2023-03-03T00:43:52;92509.00;;;2.36;88.94
53041;BME280;39326;42.650;23.248;2023-03-03T00:46:21;92498.88;;;2.38;88.14
53041;BME280;39326;42.650;23.248;2023-03-03T00:48:48;92505.03;;;2.42;87.88
53041;BME280;39326;42.650;23.248;2023-03-03T00:51:29;92494.63;;;2.33;88.99
53041;BME280;39326;42.650;23.248;2023-03-03T00:53:56;92495.50;;;2.37;88.58
53041;BME280;39326;42.650;23.248;2023-03-03T00:56:23;92496.97;;;2.22;88.34
53041;BME280;39326;42.650;23.248;2023-03-03T00:58:49;92482.13;;;2.30;88.42
53041;BME280;39326;42.650;23.248;2023-03-03T01:01:16;92479.16;;;2.32;88.58
53041;BME280;39326;42.650;23.248;2023-03-03T01:03:43;92478.94;;;2.37;88.50
53041;BME280;39326;42.650;23.248;2023-03-03T01:06:09;92476.13;;;2.30;89.20
53041;BME280;39326;42.650;23.248;2023-03-03T01:08:36;92474.69;;;2.20;89.58
53041;BME280;39326;42.650;23.248;2023-03-03T01:11:07;92462.63;;;2.31;88.36
53041;BME280;39326;42.650;23.248;2023-03-03T01:13:35;92453.44;;;2.25;88.02
53041;BME280;39326;42.650;23.248;2023-03-03T01:16:03;92478.28;;;2.27;88.35
53041;BME280;39326;42.650;23.248;2023-03-03T01:18:30;92463.16;;;2.37;87.77
53041;BME280;39326;42.650;23.248;2023-03-03T01:20:57;92469.44;;;2.20;88.98
53041;BME280;39326;42.650;23.248;2023-03-03T01:23:24;92474.91;;;2.15;89.73
53041;BME280;39326;42.650;23.248;2023-03-03T01:25:51;92480.06;;;2.23;89.10
53041;BME280;39326;42.650;23.248;2023-03-03T01:28:16;92472.94;;;2.24;88.58
53041;BME280;39326;42.650;23.248;2023-03-03T01:30:44;92479.84;;;2.29;89.38
53041;BME280;39326;42.650;23.248;2023-03-03T01:33:11;92474.03;;;2.35;87.88
53041;BME280;39326;42.650;23.248;2023-03-03T01:35:43;92468.75;;;2.35;88.78
53041;BME280;39326;42.650;23.248;2023-03-03T01:38:09;92467.44;;;2.41;88.06
53041;BME280;39326;42.650;23.248;2023-03-03T01:40:36;92464.25;;;2.36;88.44
53041;BME280;39326;42.650;23.248;2023-03-03T01:43:02;92461.72;;;2.39;87.91
53041;BME280;39326;42.650;23.248;2023-03-03T01:45:41;92457.91;;;2.37;87.92
53041;BME280;39326;42.650;23.248;2023-03-03T01:48:13;92456.06;;;2.25;88.42
53041;BME280;39326;42.650;23.248;2023-03-03T01:50:54;92458.69;;;2.25;87.94
53041;BME280;39326;42.650;23.248;2023-03-03T01:53:24;92453.41;;;2.37;88.09
53041;BME280;39326;42.650;23.248;2023-03-03T01:55:53;92460.13;;;2.22;88.06
53041;BME280;39326;42.650;23.248;2023-03-03T01:58:27;92463.28;;;2.28;88.81
53041;BME280;39326;42.650;23.248;2023-03-03T02:00:58;92460.88;;;2.35;88.08
53041;BME280;39326;42.650;23.248;2023-03-03T02:03:25;92456.03;;;2.37;87.67
53041;BME280;39326;42.650;23.248;2023-03-03T02:05:56;92455.03;;;2.42;87.68
53041;BME280;39326;42.650;23.248;2023-03-03T02:08:29;92454.28;;;2.41;87.62
53041;BME280;39326;42.650;23.248;2023-03-03T02:10:56;92457.56;;;2.38;87.79
53041;BME280;39326;42.650;23.248;2023-03-03T02:13:23;92455.13;;;2.45;87.32
53041;BME280;39326;42.650;23.248;2023-03-03T02:15:49;92458.19;;;2.47;87.91
53041;BME280;39326;42.650;23.248;2023-03-03T02:18:17;92452.69;;;2.52;87.34
53041;BME280;39326;42.650;23.248;2023-03-03T02:20:57;92452.16;;;2.47;87.66
53041;BME280;39326;42.650;23.248;2023-03-03T02:28:26;92457.66;;;2.42;87.19
53041;BME280;39326;42.650;23.248;2023-03-03T02:30:57;92452.72;;;2.40;87.45
53041;BME280;39326;42.650;23.248;2023-03-03T02:33:23;92454.59;;;2.40;87.59
53041;BME280;39326;42.650;23.248;2023-03-03T02:35:50;92452.41;;;2.42;88.06
53041;BME280;39326;42.650;23.248;2023-03-03T02:43:45;92451.91;;;2.52;87.11
53041;BME280;39326;42.650;23.248;2023-03-03T02:46:15;92451.06;;;2.48;87.84
53041;BME280;39326;42.650;23.248;2023-03-03T02:48:41;92456.44;;;2.39;88.39
53041;BME280;39326;42.650;23.248;2023-03-03T02:51:07;92455.59;;;2.35;88.46
53041;BME280;39326;42.650;23.248;2023-03-03T02:53:34;92446.16;;;2.34;88.65
53041;BME280;39326;42.650;23.248;2023-03-03T02:56:01;92445.69;;;2.44;88.95
53041;BME280;39326;42.650;23.248;2023-03-03T02:58:29;92444.78;;;2.52;88.43
53041;BME280;39326;42.650;23.248;2023-03-03T03:00:56;92441.88;;;2.42;89.16
53041;BME280;39326;42.650;23.248;2023-03-03T03:03:23;92442.72;;;2.46;88.39
53041;BME280;39326;42.650;23.248;2023-03-03T03:05:50;92441.53;;;2.43;88.44
53041;BME280;39326;42.650;23.248;2023-03-03T03:08:16;92431.09;;;2.47;88.84
53041;BME280;39326;42.650;23.248;2023-03-03T03:10:42;92445.94;;;2.39;88.09
53041;BME280;39326;42.650;23.248;2023-03-03T03:13:09;92437.66;;;2.53;88.05
53041;BME280;39326;42.650;23.248;2023-03-03T03:15:36;92439.81;;;2.35;88.93
53041;BME280;39326;42.650;23.248;2023-03-03T03:18:02;92431.25;;;2.38;88.70
53041;BME280;39326;42.650;23.248;2023-03-03T03:20:29;92435.31;;;2.36;88.51
53041;BME280;39326;42.650;23.248;2023-03-03T03:22:56;92429.94;;;2.32;88.39
53041;BME280;39326;42.650;23.248;2023-03-03T03:25:22;92432.25;;;2.34;88.78
53041;BME280;39326;42.650;23.248;2023-03-03T03:27:49;92432.69;;;2.36;88.68
53041;BME280;39326;42.650;23.248;2023-03-03T03:30:15;92426.66;;;2.35;88.06
53041;BME280;39326;42.650;23.248;2023-03-03T03:32:42;92438.81;;;2.27;88.77
53041;BME280;39326;42.650;23.248;2023-03-03T03:35:08;92429.00;;;2.24;88.80
53041;BME280;39326;42.650;23.248;2023-03-03T03:37:35;92428.44;;;2.19;88.46
53041;BME280;39326;42.650;23.248;2023-03-03T03:40:02;92423.75;;;2.12;89.22
53041;BME280;39326;42.650;23.248;2023-03-03T03:42:29;92419.94;;;2.10;88.86
53041;BME280;39326;42.650;23.248;2023-03-03T03:44:54;92420.19;;;1.92;89.79
53041;BME280;39326;42.650;23.248;2023-03-03T03:47:21;92422.91;;;1.84;89.93
53041;BME280;39326;42.650;23.248;2023-03-03T03:49:47;92423.34;;;1.98;89.65
53041;BME280;39326;42.650;23.248;2023-03-03T03:52:14;92406.34;;;1.95;89.24
53041;BME280;39326;42.650;23.248;2023-03-03T03:54:40;92419.72;;;2.03;89.10
53041;BME280;39326;42.650;23.248;2023-03-03T03:57:07;92418.50;;;2.00;89.46
53041;BME280;39326;42.650;23.248;2023-03-03T03:59:33;92416.13;;;1.95;88.78
53041;BME280;39326;42.650;23.248;2023-03-03T04:02:00;92414.59;;;1.94;89.15
53041;BME280;39326;42.650;23.248;2023-03-03T04:04:26;92422.16;;;1.83;89.06
53041;BME280;39326;42.650;23.248;2023-03-03T04:06:53;92418.13;;;1.74;89.51
53041;BME280;39326;42.650;23.248;2023-03-03T04:09:19;92414.63;;;1.69;89.49
53041;BME280;39326;42.650;23.248;2023-03-03T04:11:45;92416.47;;;1.81;89.38
53041;BME280;39326;42.650;23.248;2023-03-03T04:14:12;92408.81;;;1.76;89.57
53041;BME280;39326;42.650;23.248;2023-03-03T04:16:38;92420.94;;;1.93;89.13
53041;BME280;39326;42.650;23.248;2023-03-03T04:19:05;92416.13;;;1.95;88.81
53041;BME280;39326;42.650;23.248;2023-03-03T04:21:31;92415.69;;;1.93;88.72
53041;BME280;39326;42.650;23.248;2023-03-03T04:23:58;92417.91;;;1.79;89.44
53041;BME280;39326;42.650;23.248;2023-03-03T04:26:25;92417.25;;;1.69;89.80
53041;BME280;39326;42.650;23.248;2023-03-03T04:28:51;92408.72;;;1.73;89.35
53041;BME280;39326;42.650;23.248;2023-03-03T04:31:18;92413.28;;;1.76;89.95
53041;BME280;39326;42.650;23.248;2023-03-03T04:33:45;92406.84;;;1.73;89.77
53041;BME280;39326;42.650;23.248;2023-03-03T04:36:11;92412.41;;;1.71;89.91
53041;BME280;39326;42.650;23.248;2023-03-03T04:38:37;92414.84;;;1.64;90.78
53041;BME280;39326;42.650;23.248;2023-03-03T04:41:03;92413.44;;;1.67;90.50
53041;BME280;39326;42.650;23.248;2023-03-03T04:43:29;92413.44;;;1.67;90.04
53041;BME280;39326;42.650;23.248;2023-03-03T04:45:55;92415.69;;;1.81;90.27
53041;BME280;39326;42.650;23.248;2023-03-03T04:48:21;92412.31;;;1.80;90.06
53041;BME280;39326;42.650;23.248;2023-03-03T04:50:48;92416.69;;;1.64;90.14
53041;BME280;39326;42.650;23.248;2023-03-03T04:53:14;92411.91;;;1.54;91.02
53041;BME280;39326;42.650;23.248;2023-03-03T04:55:40;92400.50;;;1.62;90.50
53041;BME280;39326;42.650;23.248;2023-03-03T04:58:06;92416.69;;;1.76;89.74
53041;BME280;39326;42.650;23.248;2023-03-03T05:00:34;92413.63;;;1.62;90.67
53041;BME280;39326;42.650;23.248;2023-03-03T05:02:59;92418.69;;;1.67;90.45
53041;BME280;39326;42.650;23.248;2023-03-03T05:05:26;92423.81;;;1.63;90.84
53041;BME280;39326;42.650;23.248;2023-03-03T05:07:52;92427.88;;;1.73;89.68
53041;BME280;39326;42.650;23.248;2023-03-03T05:10:18;92423.03;;;1.75;89.94
53041;BME280;39326;42.650;23.248;2023-03-03T05:12:45;92423.47;;;1.77;89.77
53041;BME280;39326;42.650;23.248;2023-03-03T05:15:12;92421.31;;;1.67;89.97
53041;BME280;39326;42.650;23.248;2023-03-03T05:17:39;92427.97;;;1.64;90.29
53041;BME280;39326;42.650;23.248;2023-03-03T05:20:06;92428.84;;;1.68;89.95
53041;BME280;39326;42.650;23.248;2023-03-03T05:22:33;92430.16;;;1.75;89.72
53041;BME280;39326;42.650;23.248;2023-03-03T05:24:59;92417.66;;;1.71;90.03
53041;BME280;39326;42.650;23.248;2023-03-03T05:27:25;92422.28;;;1.75;90.24
53041;BME280;39326;42.650;23.248;2023-03-03T05:29:52;92416.47;;;1.69;90.22
53041;BME280;39326;42.650;23.248;2023-03-03T05:32:18;92429.06;;;1.88;90.48
53041;BME280;39326;42.650;23.248;2023-03-03T05:34:44;92421.50;;;1.86;89.48
53041;BME280;39326;42.650;23.248;2023-03-03T05:37:10;92431.81;;;1.79;90.02
53041;BME280;39326;42.650;23.248;2023-03-03T05:39:37;92414.75;;;1.61;90.86
53041;BME280;39326;42.650;23.248;2023-03-03T05:42:05;92427.13;;;1.60;90.77
53041;BME280;39326;42.650;23.248;2023-03-03T05:44:31;92438.16;;;1.78;90.56
53041;BME280;39326;42.650;23.248;2023-03-03T05:46:58;92429.16;;;1.91;90.21
53041;BME280;39326;42.650;23.248;2023-03-03T05:49:25;92438.59;;;1.92;89.71
53041;BME280;39326;42.650;23.248;2023-03-03T05:51:51;92430.59;;;1.89;89.40
53041;BME280;39326;42.650;23.248;2023-03-03T05:54:18;92441.31;;;1.96;89.69
53041;BME280;39326;42.650;23.248;2023-03-03T05:56:43;92439.97;;;2.02;89.24
53041;BME280;39326;42.650;23.248;2023-03-03T05:59:10;92436.25;;;2.03;89.52
53041;BME280;39326;42.650;23.248;2023-03-03T06:01:37;92440.53;;;2.08;89.16
53041;BME280;39326;42.650;23.248;2023-03-03T06:04:03;92440.53;;;1.95;89.67
53041;BME280;39326;42.650;23.248;2023-03-03T06:06:29;92442.09;;;1.84;90.58
53041;BME280;39326;42.650;23.248;2023-03-03T06:08:57;92429.94;;;1.92;89.53
53041;BME280;39326;42.650;23.248;2023-03-03T06:11:23;92432.31;;;1.97;89.45
53041;BME280;39326;42.650;23.248;2023-03-03T06:13:49;92437.03;;;2.04;89.35
53041;BME280;39326;42.650;23.248;2023-03-03T06:16:15;92439.44;;;1.96;89.55
53041;BME280;39326;42.650;23.248;2023-03-03T06:18:42;92442.31;;;2.04;89.02
53041;BME280;39326;42.650;23.248;2023-03-03T06:21:08;92446.69;;;1.99;89.59
53041;BME280;39326;42.650;23.248;2023-03-03T06:23:35;92430.16;;;1.75;89.60
53041;BME280;39326;42.650;23.248;2023-03-03T06:26:01;92443.94;;;1.96;88.90
53041;BME280;39326;42.650;23.248;2023-03-03T06:28:27;92452.03;;;2.03;89.16
53041;BME280;39326;42.650;23.248;2023-03-03T06:30:54;92446.56;;;1.96;88.60
53041;BME280;39326;42.650;23.248;2023-03-03T06:33:20;92449.72;;;2.02;89.23
53041;BME280;39326;42.650;23.248;2023-03-03T06:35:51;92455.97;;;2.09;88.62
53041;BME280;39326;42.650;23.248;2023-03-03T06:38:17;92449.72;;;2.14;89.08
53041;BME280;39326;42.650;23.248;2023-03-03T06:40:44;92456.63;;;2.18;89.13
53041;BME280;39326;42.650;23.248;2023-03-03T06:43:11;92460.78;;;2.19;89.08
53041;BME280;39326;42.650;23.248;2023-03-03T06:45:37;92452.56;;;2.09;89.31
53041;BME280;39326;42.650;23.248;2023-03-03T06:48:03;92455.41;;;2.16;88.80
53041;BME280;39326;42.650;23.248;2023-03-03T06:50:30;92459.47;;;2.13;88.43
53041;BME280;39326;42.650;23.248;2023-03-03T06:53:06;92446.47;;;2.05;89.36
53041;BME280;39326;42.650;23.248;2023-03-03T06:55:35;92451.34;;;2.18;88.58
53041;BME280;39326;42.650;23.248;2023-03-03T06:58:07;92458.16;;;2.19;88.93
53041;BME280;39326;42.650;23.248;2023-03-03T07:00:39;92454.56;;;1.99;89.52
53041;BME280;39326;42.650;23.248;2023-03-03T07:03:14;92460.38;;;1.93;90.34
53041;BME280;39326;42.650;23.248;2023-03-03T07:05:41;92465.16;;;2.15;90.51
53041;BME280;39326;42.650;23.248;2023-03-03T07:08:18;92461.97;;;2.22;89.84
53041;BME280;39326;42.650;23.248;2023-03-03T07:10:46;92461.72;;;2.39;89.94
53041;BME280;39326;42.650;23.248;2023-03-03T07:13:19;92465.06;;;2.24;89.58
53041;BME280;39326;42.650;23.248;2023-03-03T07:15:48;92465.84;;;2.12;90.47
53041;BME280;39326;42.650;23.248;2023-03-03T07:18:28;92467.00;;;2.27;90.58
53041;BME280;39326;42.650;23.248;2023-03-03T07:20:57;92467.13;;;2.18;91.04
53041;BME280;39326;42.650;23.248;2023-03-03T07:23:27;92467.78;;;2.27;90.66
53041;BME280;39326;42.650;23.248;2023-03-03T07:25:54;92458.91;;;2.20;91.73
53041;BME280;39326;42.650;23.248;2023-03-03T07:28:26;92456.72;;;2.22;91.19
53041;BME280;39326;42.650;23.248;2023-03-03T07:30:55;92464.53;;;2.46;90.04
53041;BME280;39326;42.650;23.248;2023-03-03T07:33:33;92462.16;;;2.41;90.05
53041;BME280;39326;42.650;23.248;2023-03-03T07:36:01;92466.22;;;2.39;91.10
53041;BME280;39326;42.650;23.248;2023-03-03T07:38:40;92462.56;;;2.56;90.41
53041;BME280;39326;42.650;23.248;2023-03-03T07:41:14;92467.31;;;2.66;90.07
53041;BME280;39326;42.650;23.248;2023-03-03T07:43:50;92461.63;;;2.64;90.09
53041;BME280;39326;42.650;23.248;2023-03-03T07:46:29;92460.53;;;2.65;90.31
53041;BME280;39326;42.650;23.248;2023-03-03T07:48:59;92457.72;;;2.58;90.24
53041;BME280;39326;42.650;23.248;2023-03-03T07:51:37;92461.50;;;2.44;90.47
53041;BME280;39326;42.650;23.248;2023-03-03T07:54:38;92454.84;;;2.63;90.38
53041;BME280;39326;42.650;23.248;2023-03-03T07:59:56;92465.50;;;2.66;90.06
53041;BME280;39326;42.650;23.248;2023-03-03T08:02:29;92459.00;;;2.64;90.49
53041;BME280;39326;42.650;23.248;2023-03-03T08:04:58;92457.13;;;2.64;90.79
53041;BME280;39326;42.650;23.248;2023-03-03T08:07:25;92455.41;;;2.56;90.98
53041;BME280;39326;42.650;23.248;2023-03-03T08:12:27;92456.34;;;2.48;91.33
53041;BME280;39326;42.650;23.248;2023-03-03T08:14:55;92450.06;;;2.52;91.08
53041;BME280;39326;42.650;23.248;2023-03-03T08:17:24;92454.16;;;2.66;92.00
53041;BME280;39326;42.650;23.248;2023-03-03T08:19:55;92431.34;;;2.42;91.91
53041;BME280;39326;42.650;23.248;2023-03-03T08:22:34;92454.56;;;2.52;91.72
53041;BME280;39326;42.650;23.248;2023-03-03T08:25:01;92449.53;;;2.75;90.93
53041;BME280;39326;42.650;23.248;2023-03-03T08:27:27;92445.03;;;2.75;91.50
53041;BME280;39326;42.650;23.248;2023-03-03T08:29:54;92447.97;;;3.02;91.55
53041;BME280;39326;42.650;23.248;2023-03-03T08:32:20;92434.66;;;3.11;91.31
53041;BME280;39326;42.650;23.248;2023-03-03T08:34:47;92440.22;;;3.37;89.63
53041;BME280;39326;42.650;23.248;2023-03-03T08:37:14;92436.22;;;3.43;90.05
53041;BME280;39326;42.650;23.248;2023-03-03T08:39:40;92435.00;;;3.41;89.56
53041;BME280;39326;42.650;23.248;2023-03-03T08:42:06;92442.25;;;3.44;89.29
53041;BME280;39326;42.650;23.248;2023-03-03T08:44:33;92439.97;;;3.42;89.33
53041;BME280;39326;42.650;23.248;2023-03-03T08:46:59;92447.84;;;3.26;90.07
53041;BME280;39326;42.650;23.248;2023-03-03T08:49:25;92446.47;;;3.32;89.39
53041;BME280;39326;42.650;23.248;2023-03-03T08:51:51;92444.88;;;3.44;89.62
53041;BME280;39326;42.650;23.248;2023-03-03T08:54:18;92443.44;;;3.46;89.92
53041;BME280;39326;42.650;23.248;2023-03-03T08:56:45;92447.28;;;3.49;89.72
53041;BME280;39326;42.650;23.248;2023-03-03T08:59:12;92444.34;;;3.54;89.16
53041;BME280;39326;42.650;23.248;2023-03-03T09:01:39;92447.41;;;3.40;89.79
53041;BME280;39326;42.650;23.248;2023-03-03T09:04:06;92445.72;;;3.48;89.83
53041;BME280;39326;42.650;23.248;2023-03-03T09:06:32;92448.34;;;3.48;90.17
53041;BME280;39326;42.650;23.248;2023-03-03T09:08:59;92445.47;;;3.53;89.55
53041;BME280;39326;42.650;23.248;2023-03-03T09:11:27;92439.09;;;3.70;89.79
53041;BME280;39326;42.650;23.248;2023-03-03T09:14:18;92438.81;;;3.59;89.46
53041;BME280;39326;42.650;23.248;2023-03-03T09:16:51;92437.97;;;3.71;89.10
53041;BME280;39326;42.650;23.248;2023-03-03T09:19:22;92441.88;;;3.93;88.75
53041;BME280;39326;42.650;23.248;2023-03-03T09:21:53;92432.84;;;3.94;88.89
53041;BME280;39326;42.650;23.248;2023-03-03T09:24:30;92440.91;;;4.01;88.01
53041;BME280;39326;42.650;23.248;2023-03-03T09:26:57;92441.53;;;3.94;87.44
53041;BME280;39326;42.650;23.248;2023-03-03T09:29:27;92443.56;;;4.01;88.32
53041;BME280;39326;42.650;23.248;2023-03-03T09:32:01;92439.22;;;3.93;89.09
53041;BME280;39326;42.650;23.248;2023-03-03T09:39:49;92450.06;;;4.23;87.41
53041;BME280;39326;42.650;23.248;2023-03-03T09:45:25;92443.47;;;4.13;86.65
53041;BME280;39326;42.650;23.248;2023-03-03T09:56:02;92447.75;;;4.37;85.92
53041;BME280;39326;42.650;23.248;2023-03-03T10:04:02;92442.84;;;4.04;87.04
53041;BME280;39326;42.650;23.248;2023-03-03T10:06:52;92440.97;;;4.20;86.49
53041;BME280;39326;42.650;23.248;2023-03-03T10:26:20;92429.41;;;4.25;85.91
53041;BME280;39326;42.650;23.248;2023-03-03T10:37:10;92419.31;;;3.79;87.55
53041;BME280;39326;42.650;23.248;2023-03-03T10:39:49;92422.47;;;3.85;87.89
53041;BME280;39326;42.650;23.248;2023-03-03T10:45:34;92425.97;;;3.89;88.04
53041;BME280;39326;42.650;23.248;2023-03-03T10:50:52;92419.50;;;3.86;87.84
53041;BME280;39326;42.650;23.248;2023-03-03T10:53:31;92417.22;;;4.04;87.01
53041;BME280;39326;42.650;23.248;2023-03-03T10:59:00;92412.16;;;4.11;86.69
53041;BME280;39326;42.650;23.248;2023-03-03T11:07:48;92408.19;;;3.86;87.74
53041;BME280;39326;42.650;23.248;2023-03-03T11:10:29;92401.97;;;3.78;88.38
53041;BME280;39326;42.650;23.248;2023-03-03T11:16:34;92393.69;;;3.96;87.95
53041;BME280;39326;42.650;23.248;2023-03-03T11:35:53;92388.41;;;4.31;88.67
53041;BME280;39326;42.650;23.248;2023-03-03T11:41:10;92382.56;;;4.22;88.87
53041;BME280;39326;42.650;23.248;2023-03-03T11:43:44;92379.13;;;4.18;89.24
53041;BME280;39326;42.650;23.248;2023-03-03T11:46:23;92378.50;;;4.08;88.32
53041;BME280;39326;42.650;23.248;2023-03-03T11:51:43;92381.63;;;3.95;89.95
53041;BME280;39326;42.650;23.248;2023-03-03T11:56:47;92371.59;;;3.84;90.63
53041;BME280;39326;42.650;23.248;2023-03-03T11:59:43;92370.97;;;3.91;90.36
53041;BME280;39326;42.650;23.248;2023-03-03T12:16:31;92371.97;;;4.18;90.23
53041;BME280;39326;42.650;23.248;2023-03-03T12:18:58;92374.69;;;4.06;91.25
53041;BME280;39326;42.650;23.248;2023-03-03T12:29:59;92366.38;;;4.23;90.51
53041;BME280;39326;42.650;23.248;2023-03-03T12:41:06;92376.19;;;4.42;89.92
53041;BME280;39326;42.650;23.248;2023-03-03T12:44:01;92371.06;;;4.49;89.79
53041;BME280;39326;42.650;23.248;2023-03-03T12:49:22;92374.88;;;4.52;90.19
53041;BME280;39326;42.650;23.248;2023-03-03T12:52:01;92375.88;;;4.66;89.81
53041;BME280;39326;42.650;23.248;2023-03-03T12:54:41;92376.31;;;4.68;89.69
53041;BME280;39326;42.650;23.248;2023-03-03T13:05:32;92367.97;;;4.66;90.30
53041;BME280;39326;42.650;23.248;2023-03-03T13:10:45;92368.72;;;4.67;90.50
53041;BME280;39326;42.650;23.248;2023-03-03T13:13:17;92360.94;;;4.74;89.95
53041;BME280;39326;42.650;23.248;2023-03-03T13:18:42;92359.41;;;4.73;90.00
53041;BME280;39326;42.650;23.248;2023-03-03T13:21:36;92358.75;;;4.57;90.17
53041;BME280;39326;42.650;23.248;2023-03-03T13:24:17;92363.19;;;4.53;91.04
53041;BME280;39326;42.650;23.248;2023-03-03T13:26:55;92368.31;;;4.65;90.18
53041;BME280;39326;42.650;23.248;2023-03-03T13:32:23;92362.53;;;4.79;89.53
53041;BME280;39326;42.650;23.248;2023-03-03T13:34:59;92361.41;;;4.80;89.62
53041;BME280;39326;42.650;23.248;2023-03-03T13:37:31;92367.31;;;4.50;90.97
53041;BME280;39326;42.650;23.248;2023-03-03T13:51:03;92359.13;;;4.78;88.94
53041;BME280;39326;42.650;23.248;2023-03-03T13:53:57;92362.91;;;4.58;89.36
53041;BME280;39326;42.650;23.248;2023-03-03T13:56:44;92361.44;;;4.41;90.20
53041;BME280;39326;42.650;23.248;2023-03-03T13:59:30;92362.03;;;4.50;89.98
53041;BME280;39326;42.650;23.248;2023-03-03T14:02:33;92368.53;;;4.56;89.52
53041;BME280;39326;42.650;23.248;2023-03-03T14:05:40;92368.28;;;4.61;89.75
53041;BME280;39326;42.650;23.248;2023-03-03T14:10:57;92365.56;;;4.58;89.66
53041;BME280;39326;42.650;23.248;2023-03-03T14:18:54;92355.88;;;4.65;89.22
53041;BME280;39326;42.650;23.248;2023-03-03T14:21:27;92349.59;;;4.74;89.40
53041;BME280;39326;42.650;23.248;2023-03-03T14:26:28;92349.00;;;4.80;89.28
53041;BME280;39326;42.650;23.248;2023-03-03T14:29:13;92349.44;;;4.86;89.09
53041;BME280;39326;42.650;23.248;2023-03-03T14:31:43;92351.78;;;4.91;88.94
53041;BME280;39326;42.650;23.248;2023-03-03T14:36:57;92356.47;;;4.78;89.35
53041;BME280;39326;42.650;23.248;2023-03-03T14:41:57;92350.31;;;4.71;89.82
53041;BME280;39326;42.650;23.248;2023-03-03T14:44:36;92350.44;;;4.78;89.51
53041;BME280;39326;42.650;23.248;2023-03-03T14:49:38;92350.72;;;4.73;90.09
53041;BME280;39326;42.650;23.248;2023-03-03T14:54:44;92344.47;;;4.81;89.27
53041;BME280;39326;42.650;23.248;2023-03-03T15:02:43;92337.03;;;4.86;89.16
53041;BME280;39326;42.650;23.248;2023-03-03T15:05:27;92338.53;;;4.87;89.08
53041;BME280;39326;42.650;23.248;2023-03-03T15:10:43;92336.66;;;4.88;89.30
53041;BME280;39326;42.650;23.248;2023-03-03T15:18:29;92348.28;;;4.83;89.53
53041;BME280;39326;42.650;23.248;2023-03-03T15:26:43;92344.50;;;4.84;89.83
53041;BME280;39326;42.650;23.248;2023-03-03T15:29:25;92341.63;;;4.70;89.88
53041;BME280;39326;42.650;23.248;2023-03-03T15:40:29;92345.88;;;4.75;89.76
53041;BME280;39326;42.650;23.248;2023-03-03T15:43:31;92340.59;;;4.75;89.94
53041;BME280;39326;42.650;23.248;2023-03-03T15:54:38;92362.38;;;3.94;93.10
53041;BME280;39326;42.650;23.248;2023-03-03T16:02:57;92363.34;;;4.21;92.45
53041;BME280;39326;42.650;23.248;2023-03-03T16:05:33;92370.13;;;4.22;92.32
53041;BME280;39326;42.650;23.248;2023-03-03T16:08:13;92372.22;;;3.97;92.77
53041;BME280;39326;42.650;23.248;2023-03-03T16:19:55;92373.53;;;4.42;91.29
53041;BME280;39326;42.650;23.248;2023-03-03T16:25:41;92386.41;;;4.44;91.06
53041;BME280;39326;42.650;23.248;2023-03-03T16:38:44;92393.22;;;4.64;89.98
53041;BME280;39326;42.650;23.248;2023-03-03T16:41:16;92394.59;;;4.58;89.71
53041;BME280;39326;42.650;23.248;2023-03-03T16:46:33;92405.44;;;4.33;90.89
53041;BME280;39326;42.650;23.248;2023-03-03T16:52:11;92396.75;;;4.13;91.22
53041;BME280;39326;42.650;23.248;2023-03-03T16:54:55;92412.03;;;4.24;91.60
53041;BME280;39326;42.650;23.248;2023-03-03T17:02:51;92421.06;;;4.42;91.23
53041;BME280;39326;42.650;23.248;2023-03-03T17:08:31;92418.41;;;4.42;91.13
53041;BME280;39326;42.650;23.248;2023-03-03T17:11:20;92413.94;;;4.43;90.50
53041;BME280;39326;42.650;23.248;2023-03-03T17:14:09;92421.75;;;4.39;90.74
53041;BME280;39326;42.650;23.248;2023-03-03T17:16:59;92425.09;;;4.36;90.52
53041;BME280;39326;42.650;23.248;2023-03-03T17:22:28;92426.69;;;4.40;90.60
53041;BME280;39326;42.650;23.248;2023-03-03T17:38:23;92440.97;;;4.55;90.41
53041;BME280;39326;42.650;23.248;2023-03-03T17:44:23;92461.91;;;4.48;90.66
53041;BME280;39326;42.650;23.248;2023-03-03T17:46:49;92462.75;;;4.52;90.56
53041;BME280;39326;42.650;23.248;2023-03-03T17:52:30;92467.91;;;4.45;90.98
53041;BME280;39326;42.650;23.248;2023-03-03T17:55:18;92473.38;;;4.36;91.32
53041;BME280;39326;42.650;23.248;2023-03-03T17:57:59;92479.19;;;4.26;90.94
53041;BME280;39326;42.650;23.248;2023-03-03T18:14:28;92484.91;;;4.48;89.99
53041;BME280;39326;42.650;23.248;2023-03-03T18:17:09;92484.59;;;4.49;90.15
53041;BME280;39326;42.650;23.248;2023-03-03T18:19:50;92481.59;;;4.51;89.46
53041;BME280;39326;42.650;23.248;2023-03-03T18:22:28;92481.19;;;4.49;89.34
53041;BME280;39326;42.650;23.248;2023-03-03T18:25:07;92481.50;;;4.47;89.60
53041;BME280;39326;42.650;23.248;2023-03-03T18:27:38;92479.84;;;4.39;89.67